Jamestown Regional Airport
KJMS : now visible

Airfield :











YOU CAN JOIN US ON...

 
LOGIN :

Register | Disclaimer

   EN    FR    IT 

 









Legend :    VFR   Marginal VFR   IFR   Intensive IFR   Very Intensive IFR
Visi :
Ceiling :
>= 8 km
>= 3000ft
5 to 8 km
1000 to 3000 ft
1500m to 5 km
500 to 1000 ft
800 to 1500m
200 to 500 ft
< 800m
< 200 ft
Symbols :   Thunderstorms  Fog  Heavy snow  Heavy precipitations  Wind > 20 kt






- Airport Elevation : 1500 ft
- IATA code : JMS


KJMS - Jamestown Regional

CURRENT METAR :
  • 261321Z AUTO 21003KT 5SM -SN BR OVC008 M03/M04 A2980 RMK AO2 P0000 T10331039 $

EXPIRED METARs :
  • 261313Z AUTO 19003KT 2 1/2SM -SN BR OVC008 M03/M04 A2980 RMK AO2 P0000 T10331039 $
  • 261304Z AUTO 00000KT 3SM -SN BR OVC008 M03/M04 A2980 RMK AO2 P0000 T10331039 $
  • 261244Z AUTO 00000KT 2SM -SN BR BKN008 BKN014 OVC020 M03/M04 A2980 RMK AO2 UPB16E30SNB30 P0001 T10331039 $
  • 261236Z AUTO 19003KT 3SM -SN BR SCT008 OVC018 M04/M04 A2980 RMK AO2 UPB16E30SNB30 P0000 T10391044 $
  • 261156Z AUTO 00000KT 10SM BKN016 OVC020 M04/M05 A2980 RMK AO2 SLP113 70001 I6000 T10391050 11039 21100 56002 $
  • 261056Z AUTO 18003KT 10SM OVC022 M04/M05 A2980 RMK AO2 SLP116 T10441050 $

TAF KJMS
Valid from the 26 at 13:00 until the 27 at 12:00 UTC


261252Z 2613/2712 00000KT 2SM -SN BR BKN008 BKN014 OVC020
FM261500 31005KT 4SM -FZRASN OVC005
FM262000 36009KT P6SM VCSH OVC006
FM270200 01008KT P6SM OVC004
FM271100 36005KT P6SM BKN010



MET'MAP, your aeronautical weather chart ! - Copyright ORBIFLY December 2007 - Disclaimer

ORBIFLY MET'MAP TEAM :

Programming & Development : Alexandra Zaïnal
Concept & original design : Baudouin d'Aumeries
Assistance for programming : Marc-Olivier Méhu
Technical & hardware support : Manuel Goepfert

Contact : metmap@orbifly.com




SOURCES & CREDITS :

   NOAA       Earth
Advisory